sensor_id;sensor_type;location;lat;lon;timestamp;P1;durP1;ratioP1;P2;durP2;ratioP2
8359;SDS011;4217;48.762;11.428;2022-12-22T00:04:11;54.20;;;50.17;;
8359;SDS011;4217;48.762;11.428;2022-12-22T00:14:32;53.10;;;49.30;;
8359;SDS011;4217;48.762;11.428;2022-12-22T00:24:52;49.80;;;46.20;;
8359;SDS011;4217;48.762;11.428;2022-12-22T00:35:13;51.60;;;47.50;;
8359;SDS011;4217;48.762;11.428;2022-12-22T00:45:33;61.93;;;57.40;;
8359;SDS011;4217;48.762;11.428;2022-12-22T00:55:55;65.60;;;61.57;;
8359;SDS011;4217;48.762;11.428;2022-12-22T01:06:15;85.20;;;77.20;;
8359;SDS011;4217;48.762;11.428;2022-12-22T01:16:35;97.50;;;87.83;;
8359;SDS011;4217;48.762;11.428;2022-12-22T01:26:55;69.00;;;62.00;;
8359;SDS011;4217;48.762;11.428;2022-12-22T01:37:15;91.80;;;70.70;;
8359;SDS011;4217;48.762;11.428;2022-12-22T01:47:35;61.73;;;55.57;;
8359;SDS011;4217;48.762;11.428;2022-12-22T01:57:55;51.73;;;47.80;;
8359;SDS011;4217;48.762;11.428;2022-12-22T02:08:18;51.90;;;48.20;;
8359;SDS011;4217;48.762;11.428;2022-12-22T02:29:17;40.17;;;37.40;;
8359;SDS011;4217;48.762;11.428;2022-12-22T03:00:57;45.07;;;42.17;;
8359;SDS011;4217;48.762;11.428;2022-12-22T03:11:20;44.47;;;41.87;;
8359;SDS011;4217;48.762;11.428;2022-12-22T03:21:40;38.93;;;36.63;;
8359;SDS011;4217;48.762;11.428;2022-12-22T03:32:00;35.50;;;33.13;;
8359;SDS011;4217;48.762;11.428;2022-12-22T03:42:02;38.10;;;35.60;;
8359;SDS011;4217;48.762;11.428;2022-12-22T03:52:22;34.57;;;32.37;;
8359;SDS011;4217;48.762;11.428;2022-12-22T04:02:24;32.00;;;30.00;;
8359;SDS011;4217;48.762;11.428;2022-12-22T04:12:26;37.13;;;34.93;;
8359;SDS011;4217;48.762;11.428;2022-12-22T04:22:48;35.70;;;33.70;;
8359;SDS011;4217;48.762;11.428;2022-12-22T04:32:49;35.70;;;33.50;;
8359;SDS011;4217;48.762;11.428;2022-12-22T04:42:53;46.60;;;44.00;;
8359;SDS011;4217;48.762;11.428;2022-12-22T04:52:55;34.90;;;32.80;;
8359;SDS011;4217;48.762;11.428;2022-12-22T05:02:56;36.07;;;33.87;;
8359;SDS011;4217;48.762;11.428;2022-12-22T05:12:58;31.97;;;29.97;;
8359;SDS011;4217;48.762;11.428;2022-12-22T05:22:59;33.90;;;31.70;;
8359;SDS011;4217;48.762;11.428;2022-12-22T05:33:01;43.30;;;40.43;;
8359;SDS011;4217;48.762;11.428;2022-12-22T05:43:02;46.20;;;43.33;;
8359;SDS011;4217;48.762;11.428;2022-12-22T05:53:06;51.33;;;48.37;;
8359;SDS011;4217;48.762;11.428;2022-12-22T06:03:08;47.77;;;44.83;;
8359;SDS011;4217;48.762;11.428;2022-12-22T06:13:11;62.27;;;58.87;;
8359;SDS011;4217;48.762;11.428;2022-12-22T06:23:12;59.93;;;56.90;;
8359;SDS011;4217;48.762;11.428;2022-12-22T06:33:14;68.93;;;65.63;;
8359;SDS011;4217;48.762;11.428;2022-12-22T06:43:16;60.47;;;57.43;;
8359;SDS011;4217;48.762;11.428;2022-12-22T06:53:17;51.00;;;48.37;;
8359;SDS011;4217;48.762;11.428;2022-12-22T07:03:19;53.50;;;50.53;;
8359;SDS011;4217;48.762;11.428;2022-12-22T07:13:21;59.03;;;56.13;;
8359;SDS011;4217;48.762;11.428;2022-12-22T07:23:24;37.20;;;35.10;;
8359;SDS011;4217;48.762;11.428;2022-12-22T07:33:26;38.13;;;36.13;;
8359;SDS011;4217;48.762;11.428;2022-12-22T07:43:28;27.40;;;25.60;;
8359;SDS011;4217;48.762;11.428;2022-12-22T07:53:30;28.60;;;26.93;;
8359;SDS011;4217;48.762;11.428;2022-12-22T08:03:32;16.47;;;15.77;;
8359;SDS011;4217;48.762;11.428;2022-12-22T08:13:35;15.93;;;15.23;;
8359;SDS011;4217;48.762;11.428;2022-12-22T08:23:38;20.33;;;19.33;;
8359;SDS011;4217;48.762;11.428;2022-12-22T08:33:39;11.03;;;10.53;;
8359;SDS011;4217;48.762;11.428;2022-12-22T08:43:41;11.57;;;10.97;;
8359;SDS011;4217;48.762;11.428;2022-12-22T08:53:43;17.67;;;16.97;;
8359;SDS011;4217;48.762;11.428;2022-12-22T09:04:04;13.07;;;12.53;;
8359;SDS011;4217;48.762;11.428;2022-12-22T09:14:09;9.80;;;9.10;;
8359;SDS011;4217;48.762;11.428;2022-12-22T09:24:12;13.43;;;12.93;;
8359;SDS011;4217;48.762;11.428;2022-12-22T09:34:13;3.97;;;1.70;;
8359;SDS011;4217;48.762;11.428;2022-12-22T09:44:25;12.90;;;12.30;;
8359;SDS011;4217;48.762;11.428;2022-12-22T09:54:28;13.63;;;13.03;;
8359;SDS011;4217;48.762;11.428;2022-12-22T10:04:44;12.30;;;11.70;;
8359;SDS011;4217;48.762;11.428;2022-12-22T10:14:53;11.43;;;10.83;;
8359;SDS011;4217;48.762;11.428;2022-12-22T10:24:56;12.60;;;11.90;;
8359;SDS011;4217;48.762;11.428;2022-12-22T10:35:02;12.13;;;11.63;;
8359;SDS011;4217;48.762;11.428;2022-12-22T10:45:05;10.60;;;10.03;;
8359;SDS011;4217;48.762;11.428;2022-12-22T10:55:15;10.20;;;9.70;;
8359;SDS011;4217;48.762;11.428;2022-12-22T11:05:21;8.30;;;7.90;;
8359;SDS011;4217;48.762;11.428;2022-12-22T11:36:03;24.10;;;23.00;;
8359;SDS011;4217;48.762;11.428;2022-12-22T11:46:14;24.10;;;22.87;;
8359;SDS011;4217;48.762;11.428;2022-12-22T11:56:43;25.47;;;24.20;;
8359;SDS011;4217;48.762;11.428;2022-12-22T12:17:05;22.60;;;21.70;;
8359;SDS011;4217;48.762;11.428;2022-12-22T12:37:47;21.50;;;20.50;;
8359;SDS011;4217;48.762;11.428;2022-12-22T12:47:54;24.37;;;23.20;;
8359;SDS011;4217;48.762;11.428;2022-12-22T12:59:07;25.87;;;24.77;;
8359;SDS011;4217;48.762;11.428;2022-12-22T13:09:09;27.43;;;26.33;;
8359;SDS011;4217;48.762;11.428;2022-12-22T13:19:36;26.87;;;25.60;;
8359;SDS011;4217;48.762;11.428;2022-12-22T13:29:42;24.50;;;23.33;;
8359;SDS011;4217;48.762;11.428;2022-12-22T13:50:18;27.27;;;26.07;;
8359;SDS011;4217;48.762;11.428;2022-12-22T14:00:26;26.87;;;25.60;;
8359;SDS011;4217;48.762;11.428;2022-12-22T14:10:30;29.13;;;27.47;;
8359;SDS011;4217;48.762;11.428;2022-12-22T14:20:35;25.20;;;23.90;;
8359;SDS011;4217;48.762;11.428;2022-12-22T14:30:40;25.60;;;24.20;;
8359;SDS011;4217;48.762;11.428;2022-12-22T14:40:45;27.60;;;26.30;;
8359;SDS011;4217;48.762;11.428;2022-12-22T14:50:56;28.50;;;27.20;;
8359;SDS011;4217;48.762;11.428;2022-12-22T15:11:16;26.20;;;24.90;;
8359;SDS011;4217;48.762;11.428;2022-12-22T15:21:19;23.97;;;22.23;;
8359;SDS011;4217;48.762;11.428;2022-12-22T15:31:23;21.33;;;20.03;;
8359;SDS011;4217;48.762;11.428;2022-12-22T15:41:24;24.10;;;22.47;;
8359;SDS011;4217;48.762;11.428;2022-12-22T15:51:27;23.60;;;21.97;;
8359;SDS011;4217;48.762;11.428;2022-12-22T16:01:30;22.77;;;21.37;;
8359;SDS011;4217;48.762;11.428;2022-12-22T16:11:31;26.00;;;24.50;;
8359;SDS011;4217;48.762;11.428;2022-12-22T16:21:33;27.50;;;25.90;;
8359;SDS011;4217;48.762;11.428;2022-12-22T16:31:34;25.07;;;23.50;;
8359;SDS011;4217;48.762;11.428;2022-12-22T16:41:36;26.00;;;24.43;;
8359;SDS011;4217;48.762;11.428;2022-12-22T16:51:42;25.37;;;23.87;;
8359;SDS011;4217;48.762;11.428;2022-12-22T17:01:49;26.13;;;24.63;;
8359;SDS011;4217;48.762;11.428;2022-12-22T17:11:57;24.13;;;22.73;;
8359;SDS011;4217;48.762;11.428;2022-12-22T17:22:01;29.50;;;27.60;;
8359;SDS011;4217;48.762;11.428;2022-12-22T17:32:02;30.30;;;28.50;;
8359;SDS011;4217;48.762;11.428;2022-12-22T17:42:38;31.23;;;29.30;;
8359;SDS011;4217;48.762;11.428;2022-12-22T17:52:33;30.37;;;28.67;;
8359;SDS011;4217;48.762;11.428;2022-12-22T18:02:35;30.03;;;28.00;;
8359;SDS011;4217;48.762;11.428;2022-12-22T18:12:38;27.70;;;26.03;;
8359;SDS011;4217;48.762;11.428;2022-12-22T18:22:40;26.57;;;24.97;;
8359;SDS011;4217;48.762;11.428;2022-12-22T18:32:42;30.00;;;28.00;;
8359;SDS011;4217;48.762;11.428;2022-12-22T18:42:43;28.43;;;26.53;;
8359;SDS011;4217;48.762;11.428;2022-12-22T18:52:45;25.50;;;23.70;;
8359;SDS011;4217;48.762;11.428;2022-12-22T19:02:49;24.00;;;22.40;;
8359;SDS011;4217;48.762;11.428;2022-12-22T19:12:53;23.77;;;22.27;;
8359;SDS011;4217;48.762;11.428;2022-12-22T19:22:57;22.50;;;21.00;;
8359;SDS011;4217;48.762;11.428;2022-12-22T19:33:01;26.00;;;24.20;;
8359;SDS011;4217;48.762;11.428;2022-12-22T19:43:03;30.43;;;28.63;;
8359;SDS011;4217;48.762;11.428;2022-12-22T19:53:05;28.27;;;26.40;;
8359;SDS011;4217;48.762;11.428;2022-12-22T20:03:08;30.33;;;28.47;;
8359;SDS011;4217;48.762;11.428;2022-12-22T20:13:15;31.70;;;29.50;;
8359;SDS011;4217;48.762;11.428;2022-12-22T20:23:19;26.70;;;25.03;;
8359;SDS011;4217;48.762;11.428;2022-12-22T20:33:24;29.20;;;27.00;;
8359;SDS011;4217;48.762;11.428;2022-12-22T20:43:27;24.60;;;22.83;;
8359;SDS011;4217;48.762;11.428;2022-12-22T20:53:30;29.97;;;27.77;;
8359;SDS011;4217;48.762;11.428;2022-12-22T21:03:32;36.13;;;33.73;;
8359;SDS011;4217;48.762;11.428;2022-12-22T21:13:34;36.63;;;34.23;;
8359;SDS011;4217;48.762;11.428;2022-12-22T21:23:35;36.37;;;34.07;;
8359;SDS011;4217;48.762;11.428;2022-12-22T21:33:37;32.50;;;30.60;;
8359;SDS011;4217;48.762;11.428;2022-12-22T21:43:38;35.23;;;33.00;;
8359;SDS011;4217;48.762;11.428;2022-12-22T21:53:39;37.97;;;35.57;;
8359;SDS011;4217;48.762;11.428;2022-12-22T22:03:41;38.03;;;35.63;;
8359;SDS011;4217;48.762;11.428;2022-12-22T22:13:43;25.37;;;23.57;;
8359;SDS011;4217;48.762;11.428;2022-12-22T22:23:44;29.37;;;27.67;;
8359;SDS011;4217;48.762;11.428;2022-12-22T22:33:49;26.43;;;24.73;;
8359;SDS011;4217;48.762;11.428;2022-12-22T22:43:54;21.27;;;19.53;;
8359;SDS011;4217;48.762;11.428;2022-12-22T22:53:55;18.50;;;17.43;;
8359;SDS011;4217;48.762;11.428;2022-12-22T23:03:57;18.57;;;16.80;;
8359;SDS011;4217;48.762;11.428;2022-12-22T23:13:58;19.10;;;17.90;;
8359;SDS011;4217;48.762;11.428;2022-12-22T23:24:00;14.73;;;13.53;;
8359;SDS011;4217;48.762;11.428;2022-12-22T23:34:02;35.30;;;33.17;;
8359;SDS011;4217;48.762;11.428;2022-12-22T23:44:04;6.77;;;4.13;;
8359;SDS011;4217;48.762;11.428;2022-12-22T23:54:05;7.63;;;4.83;;
